Time;durP1;ratioP1;P1;durP2;ratioP2;P2;SDS_P1;SDS_P2;PMS_P1;PMS_P2;Temp;Humidity;BMP_temperature;BMP_pressure;BME280_temperature;BME280_humidity;BME280_pressure;Samples;Min_cycle;Max_cycle;Signal;HPM_P1;HPM_P2
2023/08/03 00:00:28;;;;;;;2.30;1.70;;;;;;;;;;5071515;28;20032;-85
2023/08/03 00:02:54;;;;;;;8.25;1.83;;;;;;;;;;5072509;28;20025;-85
2023/08/03 00:05:20;;;;;;;1.80;1.40;;;;;;;;;;5071074;28;20090;-88
2023/08/03 00:07:49;;;;;;;1.95;1.65;;;;;;;;;;5068509;28;20109;-83
2023/08/03 00:10:16;;;;;;;2.65;1.88;;;;;;;;;;5070025;28;20103;-82
2023/08/03 00:12:42;;;;;;;2.95;1.88;;;;;;;;;;5070068;28;20041;-85
2023/08/03 00:15:09;;;;;;;2.17;1.52;;;;;;;;;;5072135;28;20031;-89
2023/08/03 00:17:35;;;;;;;1.70;1.27;;;;;;;;;;5071024;28;20048;-87
2023/08/03 00:20:03;;;;;;;1.52;1.30;;;;;;;;;;5070426;28;20024;-87
2023/08/03 00:22:29;;;;;;;2.70;1.92;;;;;;;;;;5072054;28;20856;-84
2023/08/03 00:24:54;;;;;;;2.03;1.63;;;;;;;;;;5070713;28;20031;-84
2023/08/03 00:27:20;;;;;;;2.85;2.10;;;;;;;;;;5071668;28;20032;-85
2023/08/03 00:29:45;;;;;;;2.47;1.60;;;;;;;;;;5073483;28;20058;-89
2023/08/03 00:32:11;;;;;;;2.22;1.77;;;;;;;;;;5072524;28;20027;-87
2023/08/03 00:34:36;;;;;;;2.30;1.90;;;;;;;;;;5072495;28;20024;-88
2023/08/03 00:37:02;;;;;;;2.63;2.00;;;;;;;;;;5073815;28;20017;-91
2023/08/03 00:39:28;;;;;;;1.65;1.27;;;;;;;;;;5071066;28;20485;-87
2023/08/03 00:41:53;;;;;;;2.65;2.10;;;;;;;;;;5071457;28;20025;-90
2023/08/03 00:44:19;;;;;;;4.00;2.33;;;;;;;;;;5072413;28;20032;-89
2023/08/03 00:46:45;;;;;;;2.92;1.92;;;;;;;;;;5075064;28;20067;-86
2023/08/03 00:49:10;;;;;;;2.40;1.77;;;;;;;;;;5074580;28;20389;-88
2023/08/03 00:51:36;;;;;;;2.72;2.25;;;;;;;;;;5074809;28;20029;-88
2023/08/03 00:54:02;;;;;;;3.25;2.75;;;;;;;;;;5076955;28;20020;-88
2023/08/03 00:56:27;;;;;;;2.58;2.05;;;;;;;;;;5075345;28;20036;-88
2023/08/03 00:58:53;;;;;;;2.97;2.55;;;;;;;;;;5076133;28;20028;-89
2023/08/03 01:01:20;;;;;;;2.28;1.70;;;;;;;;;;5076184;28;20427;-87
2023/08/03 01:03:46;;;;;;;3.38;2.42;;;;;;;;;;5070900;28;20036;-87
2023/08/03 01:06:12;;;;;;;2.50;1.83;;;;;;;;;;5076269;28;20099;-89
2023/08/03 01:08:37;;;;;;;2.03;1.52;;;;;;;;;;5075190;28;20115;-85
2023/08/03 01:11:03;;;;;;;1.45;1.33;;;;;;;;;;5074512;28;20024;-87
2023/08/03 01:13:29;;;;;;;3.08;2.30;;;;;;;;;;5073556;28;20028;-88
2023/08/03 01:15:57;;;;;;;3.08;2.05;;;;;;;;;;5072638;28;20365;-84
2023/08/03 01:18:22;;;;;;;2.00;1.42;;;;;;;;;;5077288;28;20035;-84
2023/08/03 01:20:49;;;;;;;3.22;2.13;;;;;;;;;;5075830;28;20054;-85
2023/08/03 01:23:14;;;;;;;1.88;1.38;;;;;;;;;;5074078;28;20032;-87
2023/08/03 01:25:40;;;;;;;2.90;1.98;;;;;;;;;;5072809;28;20024;-85
2023/08/03 01:28:06;;;;;;;3.67;2.25;;;;;;;;;;5073990;28;20027;-87
2023/08/03 01:30:31;;;;;;;2.92;2.15;;;;;;;;;;5074781;28;20024;-86
2023/08/03 01:32:59;;;;;;;1.98;1.67;;;;;;;;;;5077739;28;20026;-85
2023/08/03 01:35:24;;;;;;;3.13;2.15;;;;;;;;;;5075412;28;20078;-85
2023/08/03 01:37:51;;;;;;;2.97;2.35;;;;;;;;;;5073874;28;20024;-85
2023/08/03 01:40:17;;;;;;;4.80;1.85;;;;;;;;;;5072107;28;20033;-85
2023/08/03 01:42:43;;;;;;;3.17;2.20;;;;;;;;;;5073873;28;20037;-87
2023/08/03 01:45:09;;;;;;;2.00;1.75;;;;;;;;;;5077986;28;20030;-86
2023/08/03 01:47:34;;;;;;;1.83;1.40;;;;;;;;;;5076012;28;20472;-89
2023/08/03 01:50:00;;;;;;;2.35;1.80;;;;;;;;;;5077040;28;20017;-84
2023/08/03 01:52:25;;;;;;;2.50;1.67;;;;;;;;;;5075734;28;20020;-85
2023/08/03 01:54:51;;;;;;;2.67;1.92;;;;;;;;;;5073237;28;20013;-84
2023/08/03 01:57:17;;;;;;;2.45;2.10;;;;;;;;;;5073830;28;20468;-84
2023/08/03 01:59:43;;;;;;;2.67;2.15;;;;;;;;;;5073563;28;20032;-84
2023/08/03 02:02:09;;;;;;;1.95;1.58;;;;;;;;;;5073589;28;20047;-83
2023/08/03 02:04:34;;;;;;;2.97;1.75;;;;;;;;;;5074274;28;20029;-85
2023/08/03 02:07:16;;;;;;;1.77;1.50;;;;;;;;;;5076325;28;20035;-85
2023/08/03 02:09:42;;;;;;;2.47;1.90;;;;;;;;;;5074095;28;20043;-84
2023/08/03 02:12:08;;;;;;;2.40;1.80;;;;;;;;;;5074787;28;20482;-84
2023/08/03 02:14:34;;;;;;;3.72;2.65;;;;;;;;;;5074250;28;20024;-82
2023/08/03 02:16:59;;;;;;;3.00;2.15;;;;;;;;;;5074572;28;20553;-82
2023/08/03 02:19:25;;;;;;;2.60;1.85;;;;;;;;;;5072711;28;20388;-85
2023/08/03 02:21:50;;;;;;;2.60;2.40;;;;;;;;;;5072678;28;20039;-83
2023/08/03 02:24:16;;;;;;;3.47;2.72;;;;;;;;;;5075545;28;20035;-83
2023/08/03 02:26:41;;;;;;;2.47;1.98;;;;;;;;;;5077335;28;20025;-83
2023/08/03 02:29:07;;;;;;;1.80;1.63;;;;;;;;;;5076559;28;20028;-83
2023/08/03 02:31:32;;;;;;;4.18;2.53;;;;;;;;;;5074321;28;20108;-84
2023/08/03 02:33:58;;;;;;;2.75;2.08;;;;;;;;;;5074238;28;20020;-84
2023/08/03 02:36:23;;;;;;;3.28;2.25;;;;;;;;;;5073356;28;20025;-84
2023/08/03 02:38:49;;;;;;;2.85;2.28;;;;;;;;;;5072475;28;20035;-83
2023/08/03 02:41:14;;;;;;;3.17;1.92;;;;;;;;;;5072235;28;20106;-85
2023/08/03 02:43:40;;;;;;;2.20;1.98;;;;;;;;;;5072443;28;20029;-87
2023/08/03 02:46:06;;;;;;;2.63;2.15;;;;;;;;;;5075324;28;20031;-86
2023/08/03 02:48:32;;;;;;;3.80;2.20;;;;;;;;;;5072793;28;20538;-87
2023/08/03 02:50:57;;;;;;;2.38;1.95;;;;;;;;;;5071378;28;20021;-85
2023/08/03 02:53:23;;;;;;;3.85;1.98;;;;;;;;;;5073780;28;20028;-84
2023/08/03 02:55:49;;;;;;;2.08;1.70;;;;;;;;;;5073577;28;20029;-87
2023/08/03 02:58:14;;;;;;;2.67;2.42;;;;;;;;;;5075625;28;20107;-84
2023/08/03 03:00:40;;;;;;;4.50;2.90;;;;;;;;;;5070342;28;20051;-85
2023/08/03 03:03:06;;;;;;;2.50;1.77;;;;;;;;;;5074319;28;20021;-85
2023/08/03 03:05:31;;;;;;;2.55;1.88;;;;;;;;;;5074476;28;20452;-85
2023/08/03 03:07:57;;;;;;;2.97;2.38;;;;;;;;;;5073274;28;20031;-85
2023/08/03 03:10:23;;;;;;;2.83;1.65;;;;;;;;;;5072592;28;20085;-84
2023/08/03 03:12:49;;;;;;;3.00;2.38;;;;;;;;;;5074094;28;20105;-85
2023/08/03 03:15:14;;;;;;;3.03;2.05;;;;;;;;;;5072905;28;20476;-86
2023/08/03 03:17:42;;;;;;;3.95;2.30;;;;;;;;;;5074988;28;20053;-86
2023/08/03 03:20:08;;;;;;;1.73;1.52;;;;;;;;;;5067795;28;20044;-83
2023/08/03 03:22:35;;;;;;;2.60;1.73;;;;;;;;;;5068897;28;20025;-85
2023/08/03 03:25:02;;;;;;;3.17;2.30;;;;;;;;;;5071310;28;20037;-85
2023/08/03 03:27:28;;;;;;;3.85;2.65;;;;;;;;;;5074741;28;20032;-87
2023/08/03 03:29:53;;;;;;;2.00;1.75;;;;;;;;;;5072331;28;20491;-86
2023/08/03 03:32:19;;;;;;;2.95;2.25;;;;;;;;;;5073229;28;20029;-84
2023/08/03 03:34:44;;;;;;;2.15;1.95;;;;;;;;;;5072028;28;20023;-84
2023/08/03 03:37:10;;;;;;;3.83;2.47;;;;;;;;;;5072164;28;20055;-85
2023/08/03 03:39:35;;;;;;;2.38;1.83;;;;;;;;;;5073099;28;20031;-84
2023/08/03 03:42:00;;;;;;;3.92;2.50;;;;;;;;;;5065907;28;20107;-86
2023/08/03 03:44:26;;;;;;;7.55;2.38;;;;;;;;;;5074066;28;20085;-86
2023/08/03 03:46:52;;;;;;;3.58;2.40;;;;;;;;;;5073529;28;20357;-89
2023/08/03 03:49:17;;;;;;;1.80;1.42;;;;;;;;;;5073208;28;20028;-83
2023/08/03 03:51:43;;;;;;;2.70;2.38;;;;;;;;;;5074164;28;20043;-87
2023/08/03 03:54:08;;;;;;;3.38;2.83;;;;;;;;;;5074961;28;20016;-85
2023/08/03 03:56:33;;;;;;;3.13;2.13;;;;;;;;;;5073968;28;20495;-85
2023/08/03 03:58:59;;;;;;;3.05;2.40;;;;;;;;;;5072864;28;20028;-86
2023/08/03 04:01:25;;;;;;;4.53;2.55;;;;;;;;;;5075724;28;20028;-85
2023/08/03 04:03:50;;;;;;;2.33;1.98;;;;;;;;;;5076074;28;20392;-86
2023/08/03 04:06:16;;;;;;;3.90;2.72;;;;;;;;;;5075549;28;20024;-85
2023/08/03 04:08:41;;;;;;;3.97;2.50;;;;;;;;;;5074393;28;20494;-87
2023/08/03 04:11:07;;;;;;;2.65;1.88;;;;;;;;;;5073795;28;20081;-86
2023/08/03 04:13:34;;;;;;;3.63;2.33;;;;;;;;;;5068502;28;20095;-86
2023/08/03 04:15:59;;;;;;;3.25;2.63;;;;;;;;;;5069252;28;20028;-86
2023/08/03 04:18:25;;;;;;;2.97;2.40;;;;;;;;;;5068034;28;20028;-86
2023/08/03 04:20:51;;;;;;;2.75;2.03;;;;;;;;;;5070281;28;20388;-86
2023/08/03 04:23:16;;;;;;;4.47;2.28;;;;;;;;;;5069123;28;20078;-87
2023/08/03 04:25:42;;;;;;;3.38;2.55;;;;;;;;;;5071311;28;20097;-86
2023/08/03 04:28:07;;;;;;;2.38;2.17;;;;;;;;;;5070422;28;20028;-88
2023/08/03 04:30:33;;;;;;;2.78;2.50;;;;;;;;;;5066628;28;20463;-84
2023/08/03 04:32:58;;;;;;;3.28;2.35;;;;;;;;;;5070418;28;20109;-85
2023/08/03 04:35:24;;;;;;;2.88;2.03;;;;;;;;;;5068732;28;20384;-85
2023/08/03 04:37:49;;;;;;;1.63;1.45;;;;;;;;;;5070429;28;20488;-87
2023/08/03 04:40:15;;;;;;;2.10;1.63;;;;;;;;;;5072316;28;20036;-88
2023/08/03 04:42:40;;;;;;;3.85;2.60;;;;;;;;;;5074267;28;20028;-83
2023/08/03 04:45:06;;;;;;;2.60;2.13;;;;;;;;;;5072572;28;20016;-84
2023/08/03 04:47:32;;;;;;;4.20;2.55;;;;;;;;;;5071645;28;20023;-87
2023/08/03 04:49:57;;;;;;;1.70;1.40;;;;;;;;;;5073053;28;20115;-86
2023/08/03 04:52:23;;;;;;;3.63;2.60;;;;;;;;;;5074505;28;20111;-85
2023/08/03 04:54:48;;;;;;;2.55;2.25;;;;;;;;;;5069523;28;20376;-84
2023/08/03 04:57:15;;;;;;;2.75;2.08;;;;;;;;;;5070452;28;20036;-87
2023/08/03 04:59:40;;;;;;;5.32;2.97;;;;;;;;;;5069652;28;20024;-85
2023/08/03 05:02:06;;;;;;;3.10;2.70;;;;;;;;;;5068230;28;20028;-85
2023/08/03 05:04:31;;;;;;;5.85;2.45;;;;;;;;;;5069017;28;20445;-86
2023/08/03 05:06:57;;;;;;;2.65;1.95;;;;;;;;;;5068841;28;20071;-85
2023/08/03 05:09:22;;;;;;;3.63;2.58;;;;;;;;;;5068416;28;20111;-85
2023/08/03 05:23:15;;;;;;;2.75;2.17;;;;;;;;;;5104831;27;20419;-86
2023/08/03 05:25:41;;;;;;;4.28;3.05;;;;;;;;;;5107122;28;20032;-83
2023/08/03 05:28:06;;;;;;;5.40;3.10;;;;;;;;;;5102283;28;20355;-82
2023/08/03 05:30:33;;;;;;;3.85;2.55;;;;;;;;;;5104388;28;20038;-84
2023/08/03 05:33:01;;;;;;;3.45;2.67;;;;;;;;;;5103239;28;20032;-81
2023/08/03 05:35:26;;;;;;;3.97;2.63;;;;;;;;;;5105162;28;20081;-82
2023/08/03 05:37:53;;;;;;;4.45;3.25;;;;;;;;;;5101165;28;20383;-85
2023/08/03 05:40:19;;;;;;;3.70;2.45;;;;;;;;;;5098678;28;20023;-83
2023/08/03 05:42:45;;;;;;;2.60;2.13;;;;;;;;;;5103511;28;20058;-83
2023/08/03 05:45:39;;;;;;;3.88;2.78;;;;;;;;;;5098435;28;20024;-82
2023/08/03 05:48:12;;;;;;;4.72;2.83;;;;;;;;;;5102098;28;20549;-81
2023/08/03 05:50:41;;;;;;;5.82;3.00;;;;;;;;;;5107888;28;20119;-83
2023/08/03 05:53:09;;;;;;;3.10;2.28;;;;;;;;;;5106689;28;20032;-84
2023/08/03 05:55:36;;;;;;;3.97;2.75;;;;;;;;;;5105055;28;20031;-82
2023/08/03 06:11:31;;;;;;;2.97;2.38;;;;;;;;;;5097418;27;20262;-88
2023/08/03 06:13:57;;;;;;;3.33;2.53;;;;;;;;;;5077103;28;20462;-88
2023/08/03 06:16:26;;;;;;;3.78;3.05;;;;;;;;;;5065752;28;20060;-89
2023/08/03 06:18:54;;;;;;;3.70;2.55;;;;;;;;;;5078564;28;20028;-85
2023/08/03 06:21:22;;;;;;;3.25;2.90;;;;;;;;;;5081913;28;20044;-84
2023/08/03 06:23:52;;;;;;;4.07;3.03;;;;;;;;;;5071577;28;20028;-87
2023/08/03 06:26:19;;;;;;;4.25;2.20;;;;;;;;;;5084940;28;20032;-88
2023/08/03 06:28:46;;;;;;;5.22;3.05;;;;;;;;;;5075557;28;20484;-87
2023/08/03 06:31:18;;;;;;;3.55;2.20;;;;;;;;;;5083133;28;20028;-89
2023/08/03 06:33:46;;;;;;;3.28;2.60;;;;;;;;;;5078994;28;20068;-91
2023/08/03 06:36:15;;;;;;;3.50;2.22;;;;;;;;;;5071535;28;20082;-92
2023/08/03 06:38:41;;;;;;;;;;;;;;;;;;5086637;28;20455;-88
2023/08/03 06:41:08;;;;;;;3.97;2.95;;;;;;;;;;5082899;28;19928;-90
2023/08/03 06:43:34;;;;;;;2.47;2.03;;;;;;;;;;5052035;28;20033;-87
2023/08/03 06:45:59;;;;;;;4.43;2.60;;;;;;;;;;5068567;28;20032;-89
2023/08/03 06:48:25;;;;;;;3.33;2.10;;;;;;;;;;5070677;28;20040;-90
2023/08/03 06:50:51;;;;;;;4.05;2.97;;;;;;;;;;5078057;28;20527;-93
2023/08/03 06:53:16;;;;;;;3.30;2.47;;;;;;;;;;5072229;28;20025;-90
2023/08/03 06:55:48;;;;;;;3.42;2.65;;;;;;;;;;5072330;28;20111;-93
2023/08/03 06:58:17;;;;;;;4.70;2.83;;;;;;;;;;5068570;28;20385;-91
2023/08/03 07:00:44;;;;;;;2.78;2.30;;;;;;;;;;5070946;28;20024;-89
2023/08/03 07:03:10;;;;;;;3.85;2.53;;;;;;;;;;5078609;28;20036;-88
2023/08/03 07:05:35;;;;;;;4.35;3.42;;;;;;;;;;5086727;28;20028;-89
2023/08/03 07:08:04;;;;;;;3.50;2.33;;;;;;;;;;5069903;28;20037;-89
2023/08/03 07:10:29;;;;;;;3.37;2.40;;;;;;;;;;5064581;28;20401;-90
2023/08/03 07:12:55;;;;;;;4.30;2.88;;;;;;;;;;5064027;28;20029;-89
2023/08/03 07:15:20;;;;;;;3.25;2.55;;;;;;;;;;5061328;28;20032;-92
2023/08/03 07:17:46;;;;;;;4.28;2.63;;;;;;;;;;5057276;28;20024;-91
2023/08/03 07:20:12;;;;;;;2.03;1.83;;;;;;;;;;5057535;28;20054;-92
2023/08/03 07:22:38;;;;;;;4.40;3.08;;;;;;;;;;5056425;28;20029;-89
2023/08/03 07:25:04;;;;;;;2.72;2.28;;;;;;;;;;5056325;28;20036;-91
2023/08/03 07:27:29;;;;;;;2.85;2.55;;;;;;;;;;5068218;28;20062;-88
2023/08/03 07:29:55;;;;;;;3.45;2.20;;;;;;;;;;5069236;28;20080;-90
2023/08/03 07:33:12;;;;;;;3.72;2.88;;;;;;;;;;5068273;28;20032;-90
2023/08/03 07:36:19;;;;;;;2.42;1.98;;;;;;;;;;5035806;28;20392;-93
2023/08/03 07:38:44;;;;;;;3.28;2.35;;;;;;;;;;5051236;28;20055;-90
2023/08/03 07:41:10;;;;;;;2.88;2.40;;;;;;;;;;5054901;28;20468;-88
2023/08/03 07:43:35;;;;;;;3.85;2.15;;;;;;;;;;5068507;28;20028;-90
2023/08/03 07:46:04;;;;;;;3.25;2.63;;;;;;;;;;5061838;28;20037;-89
2023/08/03 07:48:29;;;;;;;4.10;2.78;;;;;;;;;;5054251;28;20098;-89
2023/08/03 07:50:55;;;;;;;3.20;2.55;;;;;;;;;;5056509;28;20048;-90
2023/08/03 07:53:20;;;;;;;2.88;1.77;;;;;;;;;;5060913;28;20028;-87
2023/08/03 07:55:46;;;;;;;3.22;2.65;;;;;;;;;;5059935;28;20164;-88
2023/08/03 07:58:12;;;;;;;5.28;3.03;;;;;;;;;;5062437;28;20808;-90
2023/08/03 08:00:37;;;;;;;2.67;1.95;;;;;;;;;;5052700;28;20031;-92
2023/08/03 08:03:03;;;;;;;4.13;3.22;;;;;;;;;;5055551;28;20028;-89
2023/08/03 08:05:28;;;;;;;5.55;3.38;;;;;;;;;;5056665;28;20107;-89
2023/08/03 08:07:54;;;;;;;4.75;3.00;;;;;;;;;;5066456;28;20035;-90
2023/08/03 08:10:20;;;;;;;2.25;1.95;;;;;;;;;;5065112;28;20949;-89
2023/08/03 08:12:45;;;;;;;3.33;2.28;;;;;;;;;;5055758;28;20103;-91
2023/08/03 08:15:11;;;;;;;3.30;2.55;;;;;;;;;;5052891;28;20028;-90
2023/08/03 08:17:36;;;;;;;3.80;2.78;;;;;;;;;;5056610;28;20158;-90
2023/08/03 08:20:02;;;;;;;2.90;2.38;;;;;;;;;;5066735;28;20032;-91
2023/08/03 08:22:28;;;;;;;3.33;2.42;;;;;;;;;;5068374;28;20021;-92
2023/08/03 08:24:53;;;;;;;4.10;3.20;;;;;;;;;;5052277;28;20052;-91
2023/08/03 08:27:19;;;;;;;3.55;2.80;;;;;;;;;;5052280;28;20017;-90
2023/08/03 08:29:46;;;;;;;3.90;2.72;;;;;;;;;;5063378;28;20345;-92
2023/08/03 08:32:12;;;;;;;3.72;3.15;;;;;;;;;;5053887;28;20029;-89
2023/08/03 08:34:38;;;;;;;3.25;2.75;;;;;;;;;;5066064;28;20541;-87
2023/08/03 08:37:03;;;;;;;4.05;2.88;;;;;;;;;;5051440;28;20415;-88
2023/08/03 08:39:29;;;;;;;3.88;2.80;;;;;;;;;;5062608;28;20066;-87
2023/08/03 08:41:55;;;;;;;4.85;3.13;;;;;;;;;;5049917;28;20403;-81
2023/08/03 08:44:21;;;;;;;4.45;2.65;;;;;;;;;;5058788;28;20039;-81
2023/08/03 08:46:46;;;;;;;4.05;2.97;;;;;;;;;;5060715;28;20032;-80
2023/08/03 08:49:12;;;;;;;3.40;2.70;;;;;;;;;;5057337;28;20017;-80
2023/08/03 08:51:41;;;;;;;3.22;2.58;;;;;;;;;;5058716;28;20028;-82
2023/08/03 08:54:06;;;;;;;3.75;2.90;;;;;;;;;;5051164;28;20024;-83
2023/08/03 08:56:32;;;;;;;3.55;2.90;;;;;;;;;;5064493;28;20656;-81
2023/08/03 08:58:57;;;;;;;3.50;2.85;;;;;;;;;;5051983;28;20036;-82
2023/08/03 09:01:23;;;;;;;3.25;2.67;;;;;;;;;;5061956;28;20028;-84
2023/08/03 09:27:01;;;;;;;4.60;3.45;;;;;;;;;;5080741;27;20452;-85
2023/08/03 09:29:29;;;;;;;5.28;3.05;;;;;;;;;;5073440;28;20040;-88
2023/08/03 09:32:05;;;;;;;4.60;3.13;;;;;;;;;;5075443;28;20078;-87
2023/08/03 09:34:49;;;;;;;4.35;3.20;;;;;;;;;;5082168;28;20357;-86
2023/08/03 09:37:14;;;;;;;3.92;3.47;;;;;;;;;;5077722;28;20029;-85
2023/08/03 09:39:53;;;;;;;3.88;2.78;;;;;;;;;;5072950;28;20020;-83
2023/08/03 09:42:20;;;;;;;4.28;3.28;;;;;;;;;;5067593;28;20063;-86
2023/08/03 09:44:46;;;;;;;5.90;3.60;;;;;;;;;;5072136;28;20041;-86
2023/08/03 09:47:12;;;;;;;5.22;3.47;;;;;;;;;;5074129;28;20032;-86
2023/08/03 09:49:38;;;;;;;3.75;2.67;;;;;;;;;;5075154;28;20036;-88
2023/08/03 09:52:21;;;;;;;8.75;3.95;;;;;;;;;;5074935;28;20154;-84
2023/08/03 09:55:07;;;;;;;4.43;3.17;;;;;;;;;;5078819;28;20081;-87
2023/08/03 09:57:59;;;;;;;5.10;3.05;;;;;;;;;;5075701;28;20026;-88
2023/08/03 10:00:26;;;;;;;4.90;3.35;;;;;;;;;;5075517;28;20444;-89
2023/08/03 10:03:04;;;;;;;3.60;2.47;;;;;;;;;;5070591;28;20039;-86
2023/08/03 10:05:36;;;;;;;5.22;3.55;;;;;;;;;;5080091;28;20028;-87
2023/08/03 10:08:14;;;;;;;5.00;3.42;;;;;;;;;;5072289;28;20099;-88
2023/08/03 10:10:48;;;;;;;4.30;3.17;;;;;;;;;;5073559;28;20086;-87
2023/08/03 10:13:15;;;;;;;4.45;3.63;;;;;;;;;;5073870;28;20028;-87
2023/08/03 10:15:41;;;;;;;3.35;2.60;;;;;;;;;;5076417;28;20035;-89
2023/08/03 10:18:06;;;;;;;3.42;2.80;;;;;;;;;;5075913;28;20437;-88
2023/08/03 10:20:36;;;;;;;3.78;2.88;;;;;;;;;;5075396;28;20028;-88
2023/08/03 10:23:11;;;;;;;;;;;;;;;;;;5075414;28;20467;-88
2023/08/03 10:25:59;;;;;;;4.50;3.20;;;;;;;;;;5078177;28;19916;-91
2023/08/03 10:28:40;;;;;;;4.50;3.10;;;;;;;;;;5078830;28;20488;-91
2023/08/03 10:31:14;;;;;;;5.15;3.05;;;;;;;;;;5080515;28;20037;-88
2023/08/03 10:33:51;;;;;;;4.85;3.50;;;;;;;;;;5077214;28;20044;-87
2023/08/03 10:36:29;;;;;;;3.97;2.65;;;;;;;;;;5073170;28;20052;-91
2023/08/03 10:38:55;;;;;;;3.30;2.55;;;;;;;;;;5062442;28;20055;-89
2023/08/03 10:41:25;;;;;;;4.70;2.88;;;;;;;;;;5067523;28;20036;-88
2023/08/03 10:44:05;;;;;;;3.78;2.92;;;;;;;;;;5061977;28;20471;-90
2023/08/03 10:46:33;;;;;;;4.40;2.88;;;;;;;;;;5063182;28;20379;-88
2023/08/03 10:48:58;;;;;;;4.40;2.67;;;;;;;;;;5065835;28;20082;-87
2023/08/03 10:51:24;;;;;;;4.40;2.50;;;;;;;;;;5063461;28;20511;-90
2023/08/03 10:53:49;;;;;;;5.78;3.10;;;;;;;;;;5062626;28;20021;-91
2023/08/03 10:56:15;;;;;;;3.47;2.47;;;;;;;;;;5063760;28;20357;-87
2023/08/03 10:58:48;;;;;;;4.97;2.85;;;;;;;;;;5063756;28;20052;-88
2023/08/03 11:01:24;;;;;;;3.72;2.55;;;;;;;;;;5062443;28;20055;-88
2023/08/03 11:03:50;;;;;;;4.25;2.92;;;;;;;;;;5058755;28;20107;-89
2023/08/03 11:06:17;;;;;;;2.42;1.98;;;;;;;;;;5063696;28;20024;-88
2023/08/03 11:08:46;;;;;;;4.25;2.85;;;;;;;;;;5063205;28;20037;-89
2023/08/03 11:11:13;;;;;;;4.18;2.70;;;;;;;;;;5059868;28;20078;-89
2023/08/03 11:13:44;;;;;;;4.38;2.90;;;;;;;;;;5060925;28;20494;-89
2023/08/03 11:16:18;;;;;;;3.75;2.83;;;;;;;;;;5061114;28;20025;-91
2023/08/03 11:18:47;;;;;;;3.88;2.90;;;;;;;;;;5063959;28;20025;-89
2023/08/03 11:21:13;;;;;;;3.40;2.53;;;;;;;;;;5061456;28;20514;-90
2023/08/03 11:23:38;;;;;;;3.50;2.28;;;;;;;;;;5060576;28;20032;-89
2023/08/03 11:26:06;;;;;;;3.75;2.97;;;;;;;;;;5057659;28;20094;-88
2023/08/03 11:28:42;;;;;;;3.83;2.53;;;;;;;;;;5062676;28;20032;-89
2023/08/03 11:31:18;;;;;;;3.70;2.72;;;;;;;;;;5065100;28;20036;-89
2023/08/03 11:33:54;;;;;;;3.50;2.47;;;;;;;;;;5062887;28;20548;-91
2023/08/03 11:36:22;;;;;;;4.68;3.17;;;;;;;;;;5059565;28;20039;-87
2023/08/03 11:38:49;;;;;;;4.53;2.97;;;;;;;;;;5058161;28;20025;-86
2023/08/03 11:41:16;;;;;;;3.15;2.63;;;;;;;;;;5065954;28;20035;-88
2023/08/03 11:43:42;;;;;;;3.30;2.63;;;;;;;;;;5058761;28;20384;-89
2023/08/03 11:46:07;;;;;;;3.13;2.30;;;;;;;;;;5062292;28;20020;-87
2023/08/03 11:48:33;;;;;;;3.63;2.55;;;;;;;;;;5063143;28;20027;-89
2023/08/03 11:50:59;;;;;;;4.30;2.60;;;;;;;;;;5061970;28;20077;-88
2023/08/03 11:53:26;;;;;;;3.28;2.25;;;;;;;;;;5060344;28;20028;-88
2023/08/03 11:55:52;;;;;;;3.80;2.45;;;;;;;;;;5061422;28;20036;-86
2023/08/03 11:58:25;;;;;;;3.75;2.72;;;;;;;;;;5059771;28;20479;-87
2023/08/03 12:01:03;;;;;;;3.92;3.00;;;;;;;;;;5092281;28;20380;-88
2023/08/03 12:03:33;;;;;;;4.50;2.63;;;;;;;;;;5056275;28;20099;-90
2023/08/03 12:06:14;;;;;;;3.35;2.20;;;;;;;;;;5057226;28;20028;-87
2023/08/03 12:08:42;;;;;;;3.13;2.22;;;;;;;;;;5057394;28;20361;-84
2023/08/03 12:11:07;;;;;;;3.25;2.15;;;;;;;;;;5059886;28;20033;-88
2023/08/03 12:13:38;;;;;;;5.70;3.20;;;;;;;;;;5056956;28;20506;-86
2023/08/03 12:16:04;;;;;;;3.85;2.50;;;;;;;;;;5061184;28;20376;-86
2023/08/03 12:18:29;;;;;;;3.15;2.60;;;;;;;;;;5063825;28;20044;-86
2023/08/03 12:20:57;;;;;;;3.40;2.53;;;;;;;;;;5061420;28;20032;-86
2023/08/03 12:23:23;;;;;;;3.60;2.77;;;;;;;;;;5061063;28;20110;-87
2023/08/03 12:25:48;;;;;;;3.75;2.58;;;;;;;;;;5064668;28;20070;-86
2023/08/03 12:28:14;;;;;;;3.30;2.65;;;;;;;;;;5060569;28;20032;-85
2023/08/03 12:30:40;;;;;;;3.45;2.33;;;;;;;;;;5065573;28;20029;-86
2023/08/03 12:33:08;;;;;;;2.28;1.90;;;;;;;;;;5060598;28;20031;-85
2023/08/03 12:35:34;;;;;;;4.40;2.65;;;;;;;;;;5064458;28;20028;-85
2023/08/03 12:37:59;;;;;;;3.40;1.83;;;;;;;;;;5058070;28;20498;-86
2023/08/03 12:40:26;;;;;;;2.22;1.50;;;;;;;;;;5060392;28;20353;-87
2023/08/03 12:42:52;;;;;;;2.90;2.13;;;;;;;;;;5057896;28;20028;-85
2023/08/03 12:45:17;;;;;;;3.00;2.17;;;;;;;;;;5058751;28;20349;-83
2023/08/03 12:47:42;;;;;;;2.58;1.98;;;;;;;;;;5057137;28;20025;-85
2023/08/03 12:50:08;;;;;;;2.38;2.05;;;;;;;;;;5060245;28;20078;-87
2023/08/03 12:52:34;;;;;;;2.58;1.80;;;;;;;;;;5060152;28;20123;-87
2023/08/03 12:55:00;;;;;;;4.40;2.63;;;;;;;;;;5058229;28;20099;-86
2023/08/03 12:57:25;;;;;;;3.38;1.88;;;;;;;;;;5060866;28;20497;-89
2023/08/03 12:59:51;;;;;;;2.90;2.22;;;;;;;;;;5062828;28;20028;-87
2023/08/03 13:02:17;;;;;;;2.03;1.65;;;;;;;;;;5060957;28;20032;-86
2023/08/03 13:04:42;;;;;;;3.15;1.90;;;;;;;;;;5060718;28;20379;-87
2023/08/03 13:07:08;;;;;;;2.20;1.70;;;;;;;;;;5056877;28;20032;-86
2023/08/03 13:09:33;;;;;;;4.10;2.13;;;;;;;;;;5058780;28;20028;-87
2023/08/03 13:11:59;;;;;;;3.65;2.03;;;;;;;;;;5063111;28;20115;-86
2023/08/03 13:14:25;;;;;;;3.33;1.95;;;;;;;;;;5056227;28;20333;-86
2023/08/03 13:16:50;;;;;;;2.92;2.08;;;;;;;;;;5059451;28;20111;-83
2023/08/03 13:19:16;;;;;;;2.88;2.05;;;;;;;;;;5062108;28;20024;-85
2023/08/03 13:21:41;;;;;;;3.08;2.00;;;;;;;;;;5059143;28;20029;-87
2023/08/03 13:24:07;;;;;;;2.97;2.13;;;;;;;;;;5062399;28;20038;-87
2023/08/03 13:26:32;;;;;;;2.90;2.35;;;;;;;;;;5056374;28;20036;-85
2023/08/03 13:28:58;;;;;;;3.55;2.45;;;;;;;;;;5063283;28;20107;-88
2023/08/03 13:31:23;;;;;;;2.72;2.30;;;;;;;;;;5059343;28;20029;-87
2023/08/03 13:33:49;;;;;;;2.63;2.00;;;;;;;;;;5059923;28;20051;-88
2023/08/03 13:36:14;;;;;;;2.25;1.88;;;;;;;;;;5056782;28;20029;-88
2023/08/03 13:38:40;;;;;;;2.30;1.55;;;;;;;;;;5058998;28;20392;-86
2023/08/03 13:41:05;;;;;;;2.22;1.92;;;;;;;;;;5061343;28;20435;-87
2023/08/03 13:43:31;;;;;;;3.63;2.20;;;;;;;;;;5064564;28;20460;-86
2023/08/03 13:45:56;;;;;;;2.42;1.70;;;;;;;;;;5058747;28;20430;-88
2023/08/03 13:48:22;;;;;;;2.17;1.70;;;;;;;;;;5063302;28;20036;-86
2023/08/03 13:50:48;;;;;;;2.28;1.88;;;;;;;;;;5057545;28;20166;-87
2023/08/03 13:53:14;;;;;;;2.83;1.73;;;;;;;;;;5057659;28;20387;-85
2023/08/03 13:55:39;;;;;;;3.38;1.65;;;;;;;;;;5060322;28;20017;-87
2023/08/03 13:58:05;;;;;;;2.40;1.63;;;;;;;;;;5060498;28;20025;-88
2023/08/03 14:00:32;;;;;;;1.92;1.48;;;;;;;;;;5054491;28;20024;-87
2023/08/03 14:02:59;;;;;;;2.38;1.80;;;;;;;;;;5060833;28;20074;-86
2023/08/03 14:05:25;;;;;;;3.10;2.22;;;;;;;;;;5059644;28;20078;-87
2023/08/03 14:07:50;;;;;;;3.63;2.25;;;;;;;;;;5059163;28;20025;-86
2023/08/03 14:10:16;;;;;;;2.20;1.70;;;;;;;;;;5055652;28;20029;-86
2023/08/03 14:12:43;;;;;;;3.13;2.17;;;;;;;;;;5061481;28;20032;-86
2023/08/03 14:15:09;;;;;;;2.67;1.77;;;;;;;;;;5065218;28;20152;-86
2023/08/03 14:17:35;;;;;;;2.08;1.52;;;;;;;;;;5059280;28;20112;-88
2023/08/03 14:20:01;;;;;;;2.70;1.83;;;;;;;;;;5062089;28;20020;-87
2023/08/03 14:22:26;;;;;;;2.63;1.95;;;;;;;;;;5066596;28;20031;-87
2023/08/03 14:24:51;;;;;;;2.58;1.90;;;;;;;;;;5064967;28;20104;-87
2023/08/03 14:27:17;;;;;;;3.55;2.60;;;;;;;;;;5058039;28;20074;-89
2023/08/03 14:29:42;;;;;;;2.33;1.75;;;;;;;;;;5055915;28;20112;-87
2023/08/03 14:32:09;;;;;;;2.85;1.67;;;;;;;;;;5052028;28;20040;-90
2023/08/03 14:34:34;;;;;;;1.92;1.58;;;;;;;;;;5053660;28;21546;-86
2023/08/03 14:37:06;;;;;;;3.33;1.95;;;;;;;;;;5050848;28;20017;-91
2023/08/03 14:39:32;;;;;;;2.65;1.92;;;;;;;;;;5055712;28;20878;-89
2023/08/03 14:41:57;;;;;;;2.40;1.90;;;;;;;;;;5055659;28;20420;-89
2023/08/03 14:44:23;;;;;;;2.05;1.48;;;;;;;;;;5051809;28;20082;-88
2023/08/03 14:46:48;;;;;;;5.10;2.17;;;;;;;;;;5047750;28;20021;-89
2023/08/03 14:49:14;;;;;;;2.38;1.70;;;;;;;;;;5052648;28;20070;-88
2023/08/03 14:51:39;;;;;;;2.50;1.80;;;;;;;;;;5057601;28;20057;-88
2023/08/03 14:54:06;;;;;;;2.30;1.70;;;;;;;;;;5062888;28;20020;-88
2023/08/03 14:56:31;;;;;;;2.30;1.50;;;;;;;;;;5066154;28;20016;-90
2023/08/03 14:58:57;;;;;;;2.55;1.83;;;;;;;;;;5067381;28;20027;-90
2023/08/03 15:01:23;;;;;;;1.80;1.30;;;;;;;;;;5067810;28;20108;-91
2023/08/03 15:03:49;;;;;;;1.83;1.40;;;;;;;;;;5064864;28;20028;-87
2023/08/03 15:06:17;;;;;;;2.35;1.60;;;;;;;;;;5069735;28;20028;-89
2023/08/03 15:08:43;;;;;;;1.85;1.48;;;;;;;;;;5062516;28;20036;-87
2023/08/03 15:11:09;;;;;;;1.73;1.25;;;;;;;;;;5062658;28;20058;-89
2023/08/03 15:13:36;;;;;;;1.50;1.27;;;;;;;;;;5062057;28;20035;-89
2023/08/03 15:16:15;;;;;;;3.13;2.13;;;;;;;;;;5064726;28;20021;-88
2023/08/03 15:18:41;;;;;;;2.20;1.63;;;;;;;;;;5063799;28;20036;-91
2023/08/03 15:21:17;;;;;;;2.58;1.67;;;;;;;;;;5065614;28;20116;-90
2023/08/03 15:23:45;;;;;;;2.17;1.65;;;;;;;;;;5059006;28;20491;-90
2023/08/03 15:26:10;;;;;;;1.80;1.35;;;;;;;;;;5062862;28;20040;-86
2023/08/03 15:28:36;;;;;;;2.55;1.92;;;;;;;;;;5061085;28;20033;-88
2023/08/03 15:31:01;;;;;;;3.35;1.88;;;;;;;;;;5056459;28;20494;-87